KPNS/PNS METAR and TAF weather

Enter ICAO airport designator
Station Type Date Time Source
KPNS METAR 2019/10/23 07:53 UTC NOAA

KPNS 230753Z 35007KT 10SM CLR 14/06 A3014 RMK AO2 SLP206 T01390061


Station Type Date Time Source
KPNS Decoded METAR 2019/10/23 07:53 UTC NOAA

PENSACOLA REGIONAL AIRPORT, FL, United States (KPNS) 30-29N 087-11W 38M
Oct 23, 2019 - 03:53 AM EDT / 2019.10.23 0753 UTC
Wind: from the N (350 degrees) at 8 MPH (7 KT):0
Visibility: 10 mile(s):0
Sky conditions: clear
Temperature: 57.0 F (13.9 C)
Dew Point: 43.0 F (6.1 C)
Relative Humidity: 59%
Pressure (altimeter): 30.14 in. Hg (1020 hPa)
ob: KPNS 230753Z 35007KT 10SM CLR 14/06 A3014 RMK AO2 SLP206 T01390061
cycle: 8

Station Type Date Time Source
KPNS TAF 2019/10/23 06:22 UTC NOAA

TAF KPNS 230520Z 2306/2406 35007KT P6SM SKC
FM231400 04008KT P6SM SKC

Example: see airport list